Time;durP1;ratioP1;P1;durP2;ratioP2;P2;SDS_P1;SDS_P2;PMS_P1;PMS_P2;Temp;Humidity;BMP_temperature;BMP_pressure;BME280_temperature;BME280_humidity;BME280_pressure;Samples;Min_cycle;Max_cycle;Signal;HPM_P1;HPM_P2
2021/12/11 00:01:45;;;;;;;;;7.00;7.00;;;;;5.79;82.40;100723.72;5060888;28;46270;-63
2021/12/11 00:04:21;;;;;;;;;9.25;7.75;;;;;5.78;82.77;100740.94;5059788;28;45554;-63
2021/12/11 00:06:52;;;;;;;;;9.50;8.00;;;;;5.78;82.93;100735.78;5060865;28;45382;-63
2021/12/11 00:09:31;;;;;;;;;7.50;6.50;;;;;5.77;82.85;100746.09;5060996;28;45293;-62
2021/12/11 00:12:08;;;;;;;;;9.00;5.75;;;;;5.73;82.87;100745.28;5060672;28;46897;-62
2021/12/11 00:14:37;;;;;;;;;8.50;5.00;;;;;5.73;82.64;100758.16;5060646;28;45878;-63
2021/12/11 00:17:04;;;;;;;;;8.50;6.00;;;;;5.74;82.58;100765.03;5059698;28;45354;-62
2021/12/11 00:19:33;;;;;;;;;9.00;8.00;;;;;5.72;83.21;100759.03;5060939;28;45341;-62
2021/12/11 00:22:09;;;;;;;;;6.75;6.75;;;;;5.69;83.03;100766.78;5060164;28;45176;-62
2021/12/11 00:24:36;;;;;;;;;4.75;2.00;;;;;5.67;83.35;100776.25;5058723;28;45371;-62
2021/12/11 00:27:08;;;;;;;;;12.00;5.00;;;;;5.68;83.16;100784.84;5060601;28;45302;-62
2021/12/11 00:29:35;;;;;;;;;7.50;6.75;;;;;5.65;83.58;100767.69;5059124;28;45548;-62
2021/12/11 00:32:10;;;;;;;;;10.25;5.75;;;;;5.65;83.02;100770.28;5059961;28;47337;-62
2021/12/11 00:34:38;;;;;;;;;6.50;5.00;;;;;5.63;83.43;100776.31;5061080;28;45772;-62
2021/12/11 00:37:07;;;;;;;;;9.00;5.75;;;;;5.62;83.29;100779.75;5060750;28;45346;-62
2021/12/11 00:39:39;;;;;;;;;5.75;5.00;;;;;5.58;84.12;100785.75;5060694;28;45130;-62
2021/12/11 00:42:09;;;;;;;;;12.25;7.00;;;;;5.58;83.41;100804.66;5047659;28;46180;-62
2021/12/11 00:44:54;;;;;;;;;8.00;4.75;;;;;5.56;84.14;100808.97;5058633;28;46061;-63
2021/12/11 00:47:24;;;;;;;;;6.00;6.00;;;;;5.56;84.12;100810.69;5050440;28;45369;-63
2021/12/11 00:50:11;;;;;;;;;6.00;5.00;;;;;5.56;84.38;100821.88;5055004;28;45955;-62
2021/12/11 00:52:48;;;;;;;;;4.75;4.75;;;;;5.56;84.26;100816.72;5057290;28;46792;-63
2021/12/11 00:55:24;;;;;;;;;7.00;6.00;;;;;5.56;84.02;100827.03;5057745;28;45593;-63
2021/12/11 00:58:03;;;;;;;;;9.00;5.00;;;;;5.55;84.05;100824.44;5057284;28;45343;-63
2021/12/11 01:00:35;;;;;;;;;5.25;5.00;;;;;5.53;84.19;100821.88;5058024;28;45466;-63
2021/12/11 01:03:01;;;;;;;;;6.25;6.25;;;;;5.54;84.58;100831.34;5051773;28;46346;-65
2021/12/11 01:05:35;;;;;;;;;6.50;5.50;;;;;5.50;84.59;100827.91;5059385;28;45543;-63
2021/12/11 01:08:00;;;;;;;;;9.25;5.50;;;;;5.54;84.40;100840.78;5046041;28;45633;-63
2021/12/11 01:10:28;;;;;;;;;8.00;6.25;;;;;5.54;84.60;100846.81;5056748;28;45517;-63
2021/12/11 01:13:03;;;;;;;;;6.00;5.00;;;;;5.54;84.06;100859.69;5057337;28;46436;-63
2021/12/11 01:15:44;;;;;;;;;12.00;4.00;;;;;5.53;84.82;100857.97;5056545;28;45473;-63
2021/12/11 01:21:01;;;;;;;;;7.25;4.50;;;;;5.52;84.72;100868.28;5056654;28;45301;-63
2021/12/11 01:26:02;;;;;;;;;6.50;5.00;;;;;5.49;84.88;100882.06;5048165;28;45301;-63
2021/12/11 01:28:28;;;;;;;;;4.25;4.25;;;;;5.47;85.29;100888.94;5058928;28;45591;-64
2021/12/11 01:30:54;;;;;;;;;8.50;6.00;;;;;5.48;84.41;100894.09;5041194;28;45446;-63
2021/12/11 01:33:20;;;;;;;;;8.50;4.25;;;;;5.50;85.10;100891.50;5057892;28;46393;-63
2021/12/11 01:35:46;;;;;;;;;5.75;5.75;;;;;5.47;84.54;100892.38;5059634;28;45846;-63
2021/12/11 01:38:19;;;;;;;;;5.00;5.00;;;;;5.43;84.47;100902.72;5058759;28;45392;-64
2021/12/11 01:40:47;;;;;;;;;4.75;4.25;;;;;5.38;84.74;100894.97;5059328;28;45506;-62
2021/12/11 01:43:14;;;;;;;;;8.00;7.75;;;;;5.38;85.25;100904.44;5058495;28;45387;-61
2021/12/11 01:45:44;;;;;;;;;5.00;2.00;;;;;5.36;85.41;100914.75;5059334;28;45864;-61
2021/12/11 01:48:10;;;;;;;;;6.25;4.75;;;;;5.37;85.03;100924.19;5049151;28;45266;-61
2021/12/11 01:50:41;;;;;;;;;5.50;4.25;;;;;5.36;85.63;100921.63;5059251;28;45326;-61
2021/12/11 01:53:16;;;;;;;;;7.50;4.00;;;;;5.37;85.09;100910.44;5058558;28;46265;-61
2021/12/11 01:55:46;;;;;;;;;5.25;4.00;;;;;5.34;85.81;100911.31;5059174;28;45328;-62
2021/12/11 01:58:22;;;;;;;;;9.25;8.75;;;;;5.34;86.18;100923.34;5046654;28;45339;-61
2021/12/11 02:00:53;;;;;;;;;6.00;6.00;;;;;5.35;85.87;100922.47;5058110;28;45246;-62
2021/12/11 02:03:24;;;;;;;;;8.00;5.00;;;;;5.34;85.93;100933.66;5053059;28;45431;-62
2021/12/11 02:05:50;;;;;;;;;4.50;2.50;;;;;5.34;86.06;100931.94;5058509;28;45353;-61
2021/12/11 02:08:20;;;;;;;;;7.50;5.00;;;;;5.33;86.23;100930.22;5059324;28;45252;-61
2021/12/11 02:10:53;;;;;;;;;5.25;4.50;;;;;5.34;86.24;100942.25;5058303;28;45162;-61
2021/12/11 02:13:27;;;;;;;;;5.00;4.00;;;;;5.35;86.11;100948.25;5058775;28;46316;-62
2021/12/11 02:15:54;;;;;;;;;4.25;1.00;;;;;5.31;85.79;100951.69;5057482;28;45716;-62
2021/12/11 02:18:27;;;;;;;;;6.00;4.00;;;;;5.27;85.63;100956.00;5058880;28;45304;-61
2021/12/11 02:20:58;;;;;;;;;11.50;5.50;;;;;5.25;86.01;100951.72;5058659;28;45312;-61
2021/12/11 02:23:26;;;;;;;;;8.75;8.25;;;;;5.22;85.76;100964.63;5049748;28;46389;-61
2021/12/11 02:25:54;;;;;;;;;8.25;5.50;;;;;5.23;86.55;100968.91;5031815;28;45320;-61
2021/12/11 02:28:29;;;;;;;;;6.25;5.75;;;;;5.21;86.50;100970.63;5058217;28;45303;-61
2021/12/11 02:31:01;;;;;;;;;7.50;5.25;;;;;5.21;86.41;100979.22;5058492;28;45431;-62
2021/12/11 02:33:34;;;;;;;;;2.50;2.50;;;;;5.18;85.93;100974.91;5058092;28;47118;-62
2021/12/11 02:36:11;;;;;;;;;4.25;4.00;;;;;5.16;86.40;100981.78;5058611;28;45331;-62
2021/12/11 02:39:00;;;;;;;;;1.00;1.00;;;;;5.12;86.51;100969.78;5058183;28;45194;-61
2021/12/11 02:41:32;;;;;;;;;5.00;3.00;;;;;5.10;87.17;100968.91;5058015;28;45459;-63
2021/12/11 02:44:03;;;;;;;;;2.00;2.00;;;;;5.10;86.79;100979.22;5058678;28;46683;-61
2021/12/11 02:46:35;;;;;;;;;5.00;5.00;;;;;5.10;87.35;100989.53;5042986;28;45368;-61
2021/12/11 02:49:15;;;;;;;;;8.00;5.25;;;;;5.11;86.55;100987.81;5054188;28;45505;-61
2021/12/11 02:51:49;;;;;;;;;6.00;4.00;;;;;5.11;86.76;100993.81;5061974;28;45375;-61
2021/12/11 02:54:26;;;;;;;;;6.00;4.00;;;;;5.09;86.81;100992.97;5061366;28;45504;-61
2021/12/11 02:56:56;;;;;;;;;8.25;6.00;;;;;5.07;87.22;100992.09;5062090;28;45449;-61
2021/12/11 02:59:26;;;;;;;;;6.00;4.00;;;;;5.04;87.29;101002.41;5061225;28;45343;-61
2021/12/11 03:02:07;;;;;;;;;6.00;4.25;;;;;5.02;87.52;100999.00;5057823;28;45447;-61
2021/12/11 03:04:41;;;;;;;;;4.00;3.00;;;;;5.03;87.88;101013.59;5061158;28;45318;-61
2021/12/11 03:07:12;;;;;;;;;11.75;4.75;;;;;5.03;87.34;101010.16;5061104;28;45359;-61
2021/12/11 03:09:41;;;;;;;;;5.75;5.75;;;;;5.02;87.33;101017.03;5062057;28;45289;-61
2021/12/11 03:12:11;;;;;;;;;7.00;4.00;;;;;5.02;87.43;101016.16;5060985;28;45621;-61
2021/12/11 03:14:37;;;;;;;;;4.50;4.50;;;;;5.02;87.10;101031.63;5061556;28;46297;-61
2021/12/11 03:17:03;;;;;;;;;6.00;4.25;;;;;5.02;87.04;101035.06;5060524;28;45323;-60
2021/12/11 03:19:31;;;;;;;;;6.75;4.75;;;;;5.02;87.45;101032.47;5061931;28;45170;-63
2021/12/11 03:21:59;;;;;;;;;5.75;4.75;;;;;5.00;88.25;101034.16;5057226;28;45481;-61
2021/12/11 03:24:27;;;;;;;;;4.75;2.50;;;;;4.95;88.10;101041.03;5047317;28;45426;-61
2021/12/11 03:26:54;;;;;;;;;9.00;5.75;;;;;4.96;87.95;101049.63;5056516;28;45314;-62
2021/12/11 03:29:20;;;;;;;;;5.00;4.00;;;;;4.92;87.61;101059.06;5061542;28;45283;-61
2021/12/11 03:31:46;;;;;;;;;4.00;2.50;;;;;4.93;87.18;101060.78;5060450;28;45659;-62
2021/12/11 03:34:16;;;;;;;;;4.00;4.00;;;;;4.93;88.25;101062.50;5061656;28;45469;-62
2021/12/11 03:36:42;;;;;;;;;5.00;5.00;;;;;4.92;87.44;101065.94;5060530;28;45284;-62
2021/12/11 03:39:13;;;;;;;;;8.00;4.25;;;;;4.88;88.40;101063.38;5061326;28;45249;-62
2021/12/11 03:41:40;;;;;;;;;5.75;5.00;;;;;4.88;87.88;101067.66;5060608;28;45526;-62
2021/12/11 03:44:07;;;;;;;;;6.25;4.75;;;;;4.85;88.47;101065.09;5061212;28;45287;-62
2021/12/11 03:46:33;;;;;;;;;9.00;6.50;;;;;4.85;88.32;101081.38;5059457;28;45343;-62
2021/12/11 03:49:05;;;;;;;;;6.00;5.00;;;;;4.82;88.49;101088.25;5052899;28;45304;-62
2021/12/11 03:51:37;;;;;;;;;4.25;3.50;;;;;4.80;88.40;101095.94;5060599;28;45293;-62
2021/12/11 03:54:07;;;;;;;;;7.00;4.00;;;;;4.79;88.49;101093.38;5060823;28;46284;-62
2021/12/11 03:56:33;;;;;;;;;7.50;4.50;;;;;4.76;88.78;101093.38;5047611;28;45892;-62
2021/12/11 03:59:00;;;;;;;;;7.75;5.00;;;;;4.76;88.75;101101.09;5060323;28;45423;-61
2021/12/11 04:01:27;;;;;;;;;4.50;4.50;;;;;4.77;89.05;101102.81;5060565;28;45641;-62
2021/12/11 04:03:58;;;;;;;;;2.50;2.00;;;;;4.76;88.59;101096.81;5048932;28;45297;-62
2021/12/11 04:06:25;;;;;;;;;4.75;4.75;;;;;4.76;88.50;101099.38;5060971;28;45444;-62
2021/12/11 04:08:52;;;;;;;;;4.25;4.00;;;;;4.77;88.97;101100.25;5060247;28;46567;-62
2021/12/11 04:11:23;;;;;;;;;1.00;1.00;;;;;4.75;88.86;101097.66;5060891;28;45624;-61
2021/12/11 04:13:52;;;;;;;;;8.50;4.00;;;;;4.75;89.27;101101.94;5059912;28;46356;-62
2021/12/11 04:16:19;;;;;;;;;7.00;4.00;;;;;4.77;89.32;101100.25;5060445;28;45819;-62
2021/12/11 04:18:45;;;;;;;;;4.75;3.00;;;;;4.76;88.74;101103.66;5060238;28;45351;-62
2021/12/11 04:21:11;;;;;;;;;11.75;4.00;;;;;4.76;88.88;101104.53;5059392;28;45573;-61
2021/12/11 04:23:37;;;;;;;;;2.00;2.00;;;;;4.76;89.56;101108.81;5049677;28;45424;-60
2021/12/11 04:26:03;;;;;;;;;3.50;3.50;;;;;4.76;89.27;101113.97;5048559;28;45778;-60
2021/12/11 04:28:31;;;;;;;;;5.75;2.50;;;;;4.77;88.69;101111.41;5059677;28;45466;-61
2021/12/11 04:31:05;;;;;;;;;4.00;2.00;;;;;4.77;88.71;101123.41;5060154;28;45513;-61
2021/12/11 04:33:38;;;;;;;;;4.00;4.00;;;;;4.76;88.92;101132.84;5059994;28;46791;-60
2021/12/11 04:36:10;;;;;;;;;8.00;5.00;;;;;4.75;89.34;101140.56;5059702;28;45727;-60
2021/12/11 04:38:37;;;;;;;;;4.25;4.00;;;;;4.74;88.81;101138.84;5059455;28;45196;-60
2021/12/11 04:41:04;;;;;;;;;2.00;2.00;;;;;4.74;88.83;101138.84;5059388;28;45586;-60
2021/12/11 04:43:30;;;;;;;;;4.00;4.00;;;;;4.73;89.64;101144.84;5058916;28;46342;-60
2021/12/11 04:46:04;;;;;;;;;4.00;3.00;;;;;4.73;89.01;101145.72;5059902;28;45468;-60
2021/12/11 04:48:42;;;;;;;;;7.75;3.00;;;;;4.72;88.91;101143.13;5044102;28;45462;-60
2021/12/11 04:51:17;;;;;;;;;6.25;4.25;;;;;4.72;89.73;101148.28;5059394;28;45414;-60
2021/12/11 05:04:52;;;;;;;;;7.50;4.50;;;;;4.66;89.47;101159.44;4956982;28;45252;-60
2021/12/11 05:10:27;;;;;;;;;10.00;5.75;;;;;4.65;89.78;101151.72;5059299;28;45280;-60
2021/12/11 05:12:57;;;;;;;;;5.75;5.75;;;;;4.63;89.79;101153.44;5037319;28;45285;-59
2021/12/11 05:15:26;;;;;;;;;9.50;7.00;;;;;4.61;89.84;101150.84;5058710;28;46268;-60
2021/12/11 05:17:53;;;;;;;;;4.50;4.50;;;;;4.58;89.49;101151.66;5059661;28;45450;-60
2021/12/11 05:20:23;;;;;;;;;9.00;5.25;;;;;4.56;90.04;101158.53;5059236;28;45263;-60
2021/12/11 05:22:49;;;;;;;;;6.25;3.00;;;;;4.53;89.66;101161.09;5054108;28;45316;-60
2021/12/11 05:25:15;;;;;;;;;5.00;4.00;;;;;4.47;90.26;101158.50;5041706;28;47006;-60
2021/12/11 05:27:42;;;;;;;;;7.50;4.25;;;;;4.52;89.45;101161.94;5059716;28;45295;-60
2021/12/11 05:30:18;;;;;;;;;8.00;5.00;;;;;4.51;90.76;101173.09;5059117;28;45391;-60
2021/12/11 05:32:44;;;;;;;;;7.75;5.75;;;;;4.51;90.01;101169.66;5059528;28;45264;-60
2021/12/11 05:35:11;;;;;;;;;4.25;2.50;;;;;4.52;90.73;101184.25;5058764;28;47157;-60
2021/12/11 05:37:37;;;;;;;;;5.00;5.00;;;;;4.51;90.02;101191.13;5059543;28;45361;-60
2021/12/11 05:40:07;;;;;;;;;9.00;5.50;;;;;4.48;90.14;101195.41;5058789;28;45482;-60
2021/12/11 05:42:33;;;;;;;;;6.00;4.75;;;;;4.44;91.24;101201.38;5059493;28;45452;-62
2021/12/11 05:44:58;;;;;;;;;5.25;2.00;;;;;4.45;90.22;101205.69;5058508;28;45418;-61
2021/12/11 05:47:24;;;;;;;;;7.50;6.50;;;;;4.45;90.51;101216.84;5051435;28;45163;-60
2021/12/11 05:49:49;;;;;;;;;11.00;7.00;;;;;4.45;90.66;101216.84;5057185;28;45261;-61
2021/12/11 05:52:16;;;;;;;;;10.50;5.25;;;;;4.46;90.45;101223.69;5059534;28;45327;-61
2021/12/11 05:54:45;;;;;;;;;9.75;5.00;;;;;4.46;90.98;101238.28;5058546;28;46114;-61
2021/12/11 05:57:14;;;;;;;;;6.75;4.00;;;;;4.45;90.39;101239.13;5059406;28;46634;-61
2021/12/11 05:59:42;;;;;;;;;6.50;6.25;;;;;4.46;90.95;101240.84;5058351;28;45283;-60
2021/12/11 06:02:15;;;;;;;;;8.00;7.00;;;;;4.44;90.77;101253.72;5052330;28;46092;-60
2021/12/11 06:04:42;;;;;;;;;5.50;4.75;;;;;4.40;90.01;101259.66;5046236;28;46070;-60
2021/12/11 06:07:10;;;;;;;;;5.00;4.00;;;;;4.37;91.24;101269.09;5057720;28;45783;-60
2021/12/11 06:09:39;;;;;;;;;5.00;4.50;;;;;4.32;91.31;101273.34;5059466;28;45357;-60
2021/12/11 06:12:10;;;;;;;;;6.25;4.50;;;;;4.31;90.98;101274.19;5058409;28;45458;-61
2021/12/11 06:14:37;;;;;;;;;9.75;5.00;;;;;4.28;91.26;101275.91;5058838;28;46243;-60
2021/12/11 06:17:05;;;;;;;;;4.00;4.00;;;;;4.29;91.23;101269.03;5057954;28;45809;-62
2021/12/11 06:19:31;;;;;;;;;7.75;5.00;;;;;4.30;91.44;101264.75;5059957;28;45226;-61
2021/12/11 06:21:58;;;;;;;;;4.75;4.00;;;;;4.27;90.97;101266.47;5058519;28;45341;-61
2021/12/11 06:24:27;;;;;;;;;5.00;4.00;;;;;4.26;91.22;101280.19;5048642;28;47001;-62
2021/12/11 06:26:54;;;;;;;;;4.75;3.50;;;;;4.25;91.46;101272.47;5057414;28;45980;-62
2021/12/11 06:29:19;;;;;;;;;7.75;2.00;;;;;4.25;91.70;101275.03;5062554;28;45247;-63
2021/12/11 06:31:45;;;;;;;;;5.00;5.00;;;;;4.24;91.79;101287.03;5061117;28;45218;-62
2021/12/11 06:34:11;;;;;;;;;6.25;4.25;;;;;4.23;91.67;101282.75;5061915;28;46204;-65
2021/12/11 06:36:38;;;;;;;;;4.50;4.50;;;;;4.26;91.30;101292.19;5026603;28;45365;-62
2021/12/11 06:39:07;;;;;;;;;8.00;4.00;;;;;4.26;91.36;101299.91;5062595;28;45305;-62
2021/12/11 06:41:36;;;;;;;;;11.00;6.25;;;;;4.28;91.90;101290.47;5061449;28;45712;-62
2021/12/11 06:44:02;;;;;;;;;10.75;4.50;;;;;4.29;91.23;101297.34;5061815;28;46029;-62
2021/12/11 06:46:30;;;;;;;;;6.25;4.50;;;;;4.26;92.14;101300.75;5061027;28;45334;-62
2021/12/11 06:48:55;;;;;;;;;5.00;4.00;;;;;4.29;90.98;101315.34;5052836;28;45367;-61
2021/12/11 06:51:21;;;;;;;;;7.50;7.00;;;;;4.27;91.79;101323.06;5061272;28;45595;-61
2021/12/11 06:53:52;;;;;;;;;12.00;7.25;;;;;4.26;91.52;101326.50;5061789;28;46367;-61
2021/12/11 06:56:21;;;;;;;;;12.25;11.00;;;;;4.25;91.92;101327.34;5061245;28;45403;-61
2021/12/11 06:58:47;;;;;;;;;6.00;6.00;;;;;4.24;92.38;101337.63;5062082;28;45206;-61
2021/12/11 07:01:13;;;;;;;;;9.00;7.75;;;;;4.25;92.16;101340.22;5060681;28;45530;-61
2021/12/11 07:03:40;;;;;;;;;7.00;5.00;;;;;4.27;91.51;101345.38;5055872;28;46374;-61
2021/12/11 07:06:05;;;;;;;;;9.00;5.00;;;;;4.27;91.42;101353.06;5061163;28;45233;-61
2021/12/11 07:08:31;;;;;;;;;12.25;6.25;;;;;4.25;91.96;101359.91;5062044;28;45332;-61
2021/12/11 07:11:00;;;;;;;;;8.75;5.75;;;;;4.23;91.84;101348.75;5061059;28;45336;-61
2021/12/11 07:13:26;;;;;;;;;8.25;4.00;;;;;4.24;91.64;101364.22;5061666;28;45325;-61
2021/12/11 07:15:52;;;;;;;;;4.00;4.00;;;;;4.26;91.46;101369.38;5060478;28;45251;-61
2021/12/11 07:18:19;;;;;;;;;5.25;4.00;;;;;4.26;91.88;101375.38;5061559;28;45256;-61
2021/12/11 07:20:44;;;;;;;;;10.00;6.75;;;;;4.25;91.92;101377.94;5061482;28;45248;-60
2021/12/11 07:23:09;;;;;;;;;6.50;4.50;;;;;4.24;91.54;101394.22;5053449;28;46413;-61
2021/12/11 07:25:44;;;;;;;;;8.00;5.00;;;;;4.21;92.22;101399.34;5047454;28;45348;-61
2021/12/11 07:28:11;;;;;;;;;5.50;5.50;;;;;4.18;91.29;101397.56;5061481;28;45218;-61
2021/12/11 07:30:40;;;;;;;;;8.25;8.00;;;;;4.17;91.88;101393.28;5059816;28;45307;-60
2021/12/11 07:33:07;;;;;;;;;10.25;7.00;;;;;4.15;92.42;101399.25;5060653;28;46338;-61
2021/12/11 07:35:34;;;;;;;;;11.00;5.75;;;;;4.14;92.52;101394.97;5061328;28;45384;-61
2021/12/11 07:38:00;;;;;;;;;11.00;7.00;;;;;4.13;92.91;101386.38;5054130;28;45434;-61
2021/12/11 07:40:29;;;;;;;;;7.25;4.50;;;;;4.13;92.33;101401.81;5057044;28;45386;-61
2021/12/11 07:42:55;;;;;;;;;6.00;4.75;;;;;4.13;92.35;101406.09;5057982;28;46422;-61
2021/12/11 07:45:24;;;;;;;;;5.50;5.50;;;;;4.15;92.20;101420.69;5060746;28;45303;-61
2021/12/11 07:47:49;;;;;;;;;12.50;7.00;;;;;4.17;93.00;101428.44;5061069;28;45511;-61
2021/12/11 07:50:15;;;;;;;;;11.25;8.00;;;;;4.20;92.19;101418.16;5061869;28;45588;-62
2021/12/11 07:52:41;;;;;;;;;1.50;0.75;;;;;4.22;92.25;101421.66;5061432;28;45409;-63
2021/12/11 07:55:09;;;;;;;;;9.00;8.00;;;;;4.30;93.27;101429.41;5061487;28;45322;-65
2021/12/11 07:57:34;;;;;;;;;7.00;7.00;;;;;4.33;92.04;101434.59;5061591;28;45379;-64
2021/12/11 08:00:00;;;;;;;;;11.75;9.00;;;;;4.36;92.81;101427.75;5061538;28;45271;-62
2021/12/11 08:02:25;;;;;;;;;13.00;8.00;;;;;4.40;92.60;101437.22;5058494;28;45469;-62
2021/12/11 08:04:51;;;;;;;;;8.25;5.75;;;;;4.42;92.18;101438.13;5059108;28;45410;-62
2021/12/11 08:07:16;;;;;;;;;11.25;10.50;;;;;4.48;91.77;101443.31;5057754;28;45406;-62
2021/12/11 08:09:42;;;;;;;;;16.75;15.00;;;;;4.50;92.33;101457.06;5057240;28;45446;-62
2021/12/11 08:12:08;;;;;;;;;15.50;11.50;;;;;4.51;91.50;101471.66;5059116;28;46251;-62
2021/12/11 08:14:33;;;;;;;;;13.25;12.00;;;;;4.56;92.28;101463.97;5059328;28;45384;-61
2021/12/11 08:17:04;;;;;;;;;14.50;13.50;;;;;4.58;92.57;101468.28;5055585;28;46518;-62
2021/12/11 08:19:30;;;;;;;;;8.00;7.75;;;;;4.62;91.55;101483.78;5057561;28;45524;-62
2021/12/11 08:21:59;;;;;;;;;11.00;8.00;;;;;4.64;91.49;101484.63;5059164;28;46801;-62
2021/12/11 08:24:27;;;;;;;;;4.75;4.00;;;;;4.68;92.17;101483.81;5056177;28;45853;-63
2021/12/11 08:26:54;;;;;;;;;10.25;6.50;;;;;4.77;92.28;101489.03;5059783;28;45422;-62
2021/12/11 08:29:20;;;;;;;;;11.25;6.50;;;;;4.82;91.65;101479.66;5058949;28;45449;-62
2021/12/11 08:31:49;;;;;;;;;10.75;7.50;;;;;4.87;91.82;101486.56;5057916;28;46006;-62
2021/12/11 08:34:14;;;;;;;;;12.00;8.00;;;;;4.95;91.35;101480.59;5058818;28;45351;-62
2021/12/11 08:36:41;;;;;;;;;12.00;8.50;;;;;5.00;90.19;101492.63;5058678;28;45287;-62
2021/12/11 08:39:11;;;;;;;;;13.50;8.00;;;;;5.08;91.00;101500.44;5068723;28;45498;-62
2021/12/11 08:41:38;;;;;;;;;8.25;6.00;;;;;5.17;90.44;101495.34;5071071;28;45572;-62
2021/12/11 08:44:09;;;;;;;;;16.75;9.00;;;;;5.31;91.18;101479.97;5070969;28;45351;-63
2021/12/11 08:46:37;;;;;;;;;8.75;8.50;;;;;5.49;91.06;101480.94;5066325;28;45406;-60
2021/12/11 08:49:08;;;;;;;;;11.50;8.00;;;;;5.63;89.01;101493.06;5072001;28;45618;-61
2021/12/11 08:51:48;;;;;;;;;14.50;11.75;;;;;5.72;89.19;101500.81;5071511;28;46272;-61
2021/12/11 08:54:16;;;;;;;;;10.00;9.50;;;;;5.80;88.77;101496.53;5067806;28;46065;-62
2021/12/11 08:56:42;;;;;;;;;13.00;13.00;;;;;5.89;88.33;101499.16;5071146;28;45452;-60
2021/12/11 08:59:13;;;;;;;;;12.25;8.50;;;;;6.00;88.38;101505.25;5072174;28;45497;-61
2021/12/11 09:02:15;;;;;;;;;13.50;13.25;;;;;6.13;88.27;101511.31;5070048;28;45402;-61
2021/12/11 09:04:48;;;;;;;;;11.75;7.25;;;;;6.32;88.39;101515.69;5070663;28;45321;-61
2021/12/11 09:07:27;;;;;;;;;20.00;13.00;;;;;6.52;88.47;101513.13;5067930;28;45327;-60
2021/12/11 09:10:21;;;;;;;;;11.00;6.75;;;;;6.71;87.79;101512.31;5060242;28;45739;-64
2021/12/11 09:12:57;;;;;;;;;12.25;10.50;;;;;6.84;86.98;101523.50;5057730;28;46208;-62
2021/12/11 09:15:31;;;;;;;;;16.00;12.00;;;;;7.03;86.84;101529.53;5054315;28;45695;-59
2021/12/11 09:18:07;;;;;;;;;14.25;9.75;;;;;7.16;86.58;101533.81;5057249;28;45626;-60
2021/12/11 09:20:52;;;;;;;;;16.25;12.50;;;;;7.33;85.11;101533.81;5057944;28;45536;-59
2021/12/11 09:23:42;;;;;;;;;12.00;9.75;;;;;7.47;86.00;101541.56;5057627;28;45983;-60
2021/12/11 09:26:25;;;;;;;;;11.75;8.50;;;;;7.62;85.38;101547.56;5058642;28;45864;-63
2021/12/11 09:28:53;;;;;;;;;11.50;8.75;;;;;7.72;82.16;101558.75;5059565;28;45299;-61
2021/12/11 09:31:26;;;;;;;;;12.25;6.75;;;;;7.62;80.75;101560.50;5059573;28;45459;-62
2021/12/11 09:34:15;;;;;;;;;9.00;7.00;;;;;7.54;81.85;101572.56;5059645;28;45286;-61
2021/12/11 09:36:47;;;;;;;;;14.00;8.25;;;;;7.43;81.45;101571.75;5059415;28;45308;-60
2021/12/11 09:39:27;;;;;;;;;13.00;9.00;;;;;7.32;79.67;101584.66;5059895;28;45399;-60
2021/12/11 09:41:52;;;;;;;;;10.00;8.50;;;;;7.21;81.82;101580.38;5058637;28;45410;-60
2021/12/11 09:44:36;;;;;;;;;12.00;8.67;;;;;7.18;81.53;101585.53;5053665;28;56661;-59
2021/12/11 09:47:10;;;;;;;;;9.50;8.00;;;;;7.16;82.01;101582.06;5030986;28;45302;-60
2021/12/11 09:49:42;;;;;;;;;8.25;8.25;;;;;7.18;82.10;101583.78;5027185;28;45345;-61
2021/12/11 09:52:23;;;;;;;;;11.75;8.25;;;;;7.20;81.21;101586.38;5039279;28;45447;-61
2021/12/11 09:55:12;;;;;;;;;9.00;8.50;;;;;7.19;80.75;101595.00;5038960;28;46112;-63
2021/12/11 09:57:46;;;;;;;;;8.50;8.00;;;;;7.13;81.33;101582.09;5022626;28;45572;-59
2021/12/11 10:00:27;;;;;;;;;8.50;8.50;;;;;7.25;81.75;101597.59;5036318;28;45514;-60
2021/12/11 10:02:53;;;;;;;;;9.75;9.00;;;;;7.31;82.27;101597.59;5040247;28;45998;-60
2021/12/11 10:05:34;;;;;;;;;14.50;10.00;;;;;7.36;80.97;101606.19;5039766;28;47063;-60
2021/12/11 10:08:31;;;;;;;;;15.00;13.50;;;;;7.42;80.97;101616.56;5039709;28;45302;-58
2021/12/11 10:11:14;;;;;;;;;13.00;9.75;;;;;7.47;81.18;101619.16;5037643;28;45167;-59
2021/12/11 10:13:45;;;;;;;;;17.25;14.25;;;;;7.51;80.91;101621.72;5037948;28;45642;-59
2021/12/11 10:16:12;;;;;;;;;12.00;9.75;;;;;7.56;81.11;101619.13;5037332;28;45504;-58
2021/12/11 10:18:39;;;;;;;;;19.50;12.50;;;;;7.61;81.58;101613.09;5019207;28;46046;-58
2021/12/11 10:21:21;;;;;;;;;12.00;12.00;;;;;7.68;81.55;101620.84;5038578;28;45328;-61
2021/12/11 10:23:52;;;;;;;;;10.75;10.25;;;;;7.69;80.46;101618.25;5038391;28;45439;-61
2021/12/11 10:26:20;;;;;;;;;15.00;10.75;;;;;7.70;80.44;101613.94;5037745;28;46307;-59
2021/12/11 10:28:51;;;;;;;;;18.50;14.75;;;;;7.71;80.05;101615.66;5038829;28;45226;-59
2021/12/11 10:31:28;;;;;;;;;17.25;10.00;;;;;7.78;80.90;101612.19;5038858;28;45376;-59
2021/12/11 10:33:56;;;;;;;;;10.25;6.25;;;;;7.84;80.01;101607.88;5039474;28;45566;-59
2021/12/11 10:36:27;;;;;;;;;20.25;15.00;;;;;7.89;80.98;101610.44;5040105;28;46217;-60
2021/12/11 10:38:57;;;;;;;;;11.00;11.00;;;;;7.97;80.14;101616.47;5037201;28;45582;-59
2021/12/11 10:41:25;;;;;;;;;15.50;10.00;;;;;8.09;80.31;101613.84;5057754;28;45510;-59
2021/12/11 10:44:17;;;;;;;;;12.00;10.50;;;;;8.09;78.23;101616.44;5057650;28;45434;-59
2021/12/11 10:46:50;;;;;;;;;13.50;5.25;;;;;8.08;78.69;101619.88;5053667;28;45406;-59
2021/12/11 10:49:17;;;;;;;;;5.75;5.75;;;;;8.21;79.38;101625.91;5055422;28;46029;-60
2021/12/11 10:52:07;;;;;;;;;7.00;4.25;;;;;8.77;77.26;101622.19;5057906;28;45719;-60
2021/12/11 10:54:32;;;;;;;;;9.75;6.75;;;;;9.61;76.71;101626.72;5054499;28;45232;-60
2021/12/11 10:56:58;;;;;;;;;7.00;5.00;;;;;9.84;76.36;101623.94;5057308;28;45597;-61
2021/12/11 10:59:28;;;;;;;;;9.50;6.25;;;;;10.80;77.36;101622.75;5057057;28;45374;-60
2021/12/11 11:02:08;;;;;;;;;14.00;9.75;;;;;12.27;74.01;101627.22;5055050;28;45417;-60
2021/12/11 11:04:39;;;;;;;;;12.50;8.00;;;;;12.42;73.14;101615.63;5057302;28;45708;-62
2021/12/11 11:07:06;;;;;;;;;13.75;9.00;;;;;12.43;73.46;101623.41;5058776;28;47322;-60
2021/12/11 11:09:31;;;;;;;;;6.75;6.75;;;;;13.18;74.00;101628.69;5059764;28;45375;-60
2021/12/11 11:11:59;;;;;;;;;8.25;8.25;;;;;13.43;69.79;101631.59;5061436;28;45304;-60
2021/12/11 11:14:25;;;;;;;;;12.50;7.75;;;;;13.32;71.13;101629.22;5062129;28;45343;-59
2021/12/11 11:16:56;;;;;;;;;7.25;4.75;;;;;13.19;65.49;101638.25;5060909;28;46182;-59
2021/12/11 11:19:24;;;;;;;;;14.00;4.25;;;;;12.84;65.28;101623.41;5060352;28;45424;-59
2021/12/11 11:21:58;;;;;;;;;10.00;7.00;;;;;12.86;67.04;101625.06;5059066;28;45474;-60
2021/12/11 11:24:31;;;;;;;;;7.00;4.00;;;;;13.78;67.03;101634.13;5059007;28;45387;-59
2021/12/11 11:26:57;;;;;;;;;5.50;4.50;;;;;14.02;67.49;101627.41;5057931;28;46325;-59
2021/12/11 11:29:25;;;;;;;;;9.75;4.00;;;;;13.94;64.49;101622.38;5060669;28;45601;-59
2021/12/11 11:31:55;;;;;;;;;9.25;8.00;;;;;13.39;65.71;101622.94;5059693;28;45375;-59
2021/12/11 11:34:22;;;;;;;;;8.75;5.00;;;;;12.92;66.50;101619.69;5060449;28;45347;-59
2021/12/11 11:36:49;;;;;;;;;7.25;4.75;;;;;12.40;66.72;101607.81;5059772;28;46241;-64
2021/12/11 11:39:18;;;;;;;;;8.00;8.00;;;;;12.08;67.19;101626.72;5056514;28;45863;-59
2021/12/11 11:41:50;;;;;;;;;6.75;4.75;;;;;11.76;68.32;101622.06;5061429;28;45471;-59
2021/12/11 11:44:16;;;;;;;;;8.00;5.00;;;;;11.42;66.80;101623.56;5061135;28;45425;-59
2021/12/11 11:46:42;;;;;;;;;10.25;5.75;;;;;10.95;66.86;101625.16;5060123;28;45464;-59
2021/12/11 11:49:10;;;;;;;;;7.25;4.50;;;;;10.59;66.73;101631.72;5060866;28;45701;-60
2021/12/11 11:51:42;;;;;;;;;5.25;3.25;;;;;10.33;67.71;101638.13;5061633;28;45271;-59
2021/12/11 11:54:09;;;;;;;;;7.00;4.75;;;;;10.12;66.87;101642.66;5060176;28;45621;-46
2021/12/11 11:56:39;;;;;;;;;6.75;3.75;;;;;9.98;68.65;101645.41;5060376;28;45567;-55
2021/12/11 11:59:07;;;;;;;;;6.00;6.00;;;;;9.84;68.13;101645.56;5061049;28;45248;-49
2021/12/11 12:01:38;;;;;;;;;8.25;7.25;;;;;9.75;68.76;101649.09;5060425;28;45422;-44
2021/12/11 12:04:05;;;;;;;;;8.00;3.25;;;;;9.71;69.47;101649.16;5060016;28;45307;-44